WXM80 ListenWXM80 Stop

You find our weather info also at:

UK Metoffice

WeatherCloud

Weather Underground

Northeastern Weather Network

AWEKAS

Citizen Weather Observer Program (CWOP)

HAMweather, WeatherForYou, PWS Weather


Weather Underground History page Text

Daily Summary for October 9, 2017 Units:  English    Metric   Both
« Previous Day
Next Day »
Daily Weekly Monthly Yearly Custom
  High: Low: Average:
Temperature: 74.7 °F 72.1 °F 73.1 °F
Dew Point: 73.3 °F 70.6 °F 71.9 °F
Humidity: 97 % 93 % 96 %
Wind Speed: 7.9 mph 0.0 mph 2.1 mph
Wind Gust: 20.0 mph - -
Wind:- - SSW
Pressure: 29.95 in 29.52 in -
Precipitation: 0.25 in    
Historical Graphs
 
 
Tabular Data for October 9, 2017
Time Temperature Dew Point Pressure Wind Wind Speed Wind Gust Humidity Rainfall Rate (Hourly)
00:03 73.8 °F 72.3 °F 29.94 in WSW 0.1 mph 1.2 mph 95 % 0.00 in
00:08 73.7 °F 72.2 °F 29.94 in Calm   1.2 mph 95 % 0.00 in
00:13 73.6 °F 72.1 °F 29.94 in WSW 0.2 mph 1.2 mph 95 % 0.00 in
00:18 73.5 °F 72.0 °F 29.95 in SE 0.4 mph 1.2 mph 95 % 0.00 in
00:23 73.5 °F 72.0 °F 29.95 in SSW 0.9 mph 3.5 mph 95 % 0.00 in
00:28 73.5 °F 72.0 °F 29.95 in SSW 0.7 mph 3.5 mph 95 % 0.00 in
00:33 73.4 °F 71.9 °F 29.95 in SSW 0.1 mph 2.3 mph 95 % 0.00 in
00:38 73.3 °F 71.8 °F 29.95 in Calm   1.2 mph 95 % 0.00 in
00:43 73.2 °F 71.7 °F 29.95 in WSW 0.2 mph 2.0 mph 95 % 0.00 in
00:48 73.2 °F 71.7 °F 29.95 in SW 0.1 mph 1.2 mph 95 % 0.00 in
00:53 73.1 °F 71.6 °F 29.95 in Calm   1.2 mph 95 % 0.00 in
00:58 73.1 °F 71.6 °F 29.95 in Calm   1.2 mph 95 % 0.00 in
01:03 73.0 °F 71.5 °F 29.94 in WSW 1.2 mph 3.5 mph 95 % 0.00 in
01:08 73.0 °F 71.5 °F 29.95 in WSW 1.8 mph 3.5 mph 95 % 0.00 in
01:13 73.1 °F 71.9 °F 29.94 in SSW 1.8 mph 3.5 mph 96 % 0.00 in
01:18 73.1 °F 71.9 °F 29.94 in South 0.4 mph 1.2 mph 96 % 0.00 in
01:24 73.1 °F 71.9 °F 29.94 in SW 1.2 mph 2.3 mph 96 % 0.00 in
01:29 73.1 °F 71.9 °F 29.94 in SW 0.1 mph 1.2 mph 96 % 0.00 in
01:34 73.1 °F 71.9 °F 29.94 in Calm     96 % 0.00 in
01:44 73.1 °F 71.9 °F 29.94 in Calm   1.2 mph 96 % 0.00 in
01:49 73.1 °F 71.9 °F 29.94 in WSW 0.3 mph 1.2 mph 96 % 0.00 in
01:54 73.1 °F 71.9 °F 29.94 in WSW 0.1 mph 1.2 mph 96 % 0.00 in
01:59 73.1 °F 71.9 °F 29.94 in WSW 0.4 mph 2.3 mph 96 % 0.00 in
02:09 73.1 °F 71.9 °F 29.94 in Calm     96 % 0.00 in
02:14 73.1 °F 71.9 °F 29.94 in West 0.5 mph 3.5 mph 96 % 0.00 in
02:19 73.1 °F 71.9 °F 29.94 in SSE 0.4 mph 2.3 mph 96 % 0.00 in
02:24 73.1 °F 71.9 °F 29.94 in Calm   1.2 mph 96 % 0.00 in
02:29 73.1 °F 71.9 °F 29.94 in Calm   2.3 mph 96 % 0.00 in
02:34 73.0 °F 71.8 °F 29.93 in SSE 0.2 mph 3.5 mph 96 % 0.00 in
02:39 73.0 °F 71.8 °F 29.94 in Calm   2.3 mph 96 % 0.00 in
02:44 73.0 °F 71.8 °F 29.94 in SSE 0.1 mph 1.2 mph 96 % 0.00 in
02:50 72.9 °F 71.7 °F 29.93 in SSE 0.1 mph 1.2 mph 96 % 0.00 in
02:55 72.9 °F 71.7 °F 29.87 in SSE 0.3 mph 1.2 mph 96 % 0.00 in
03:00 72.9 °F 71.7 °F 29.73 in Calm   1.2 mph 96 % 0.00 in
03:10 72.8 °F 71.6 °F 29.83 in Calm     96 % 0.00 in
03:15 72.7 °F 71.5 °F 29.87 in SSE 0.2 mph 1.2 mph 96 % 0.00 in
03:20 72.7 °F 71.5 °F 29.86 in SE 0.2 mph 2.3 mph 96 % 0.00 in
03:30 72.5 °F 71.3 °F 29.87 in SSE 0.4 mph 2.3 mph 96 % 0.00 in
03:35 72.5 °F 71.3 °F 29.89 in South 0.8 mph 3.5 mph 96 % 0.00 in
03:40 72.4 °F 71.2 °F 29.86 in SSW 0.4 mph 2.3 mph 96 % 0.00 in
03:45 72.3 °F 70.8 °F 29.86 in SE 0.6 mph 2.3 mph 95 % 0.00 in
03:50 72.3 °F 70.8 °F 29.82 in SSW 0.5 mph 1.2 mph 95 % 0.00 in
03:55 72.2 °F 71.0 °F 29.83 in SSW 0.3 mph 2.3 mph 96 % 0.00 in
03:56 72.2 °F 71.0 °F 29.83 in SE 1.1 mph 3.0 mph 96 % 0.00 in
04:01 72.2 °F 70.7 °F 29.84 in SSW 2.8 mph 3.5 mph 95 % 0.00 in
04:06 72.1 °F 70.6 °F 29.89 in WSW 0.9 mph 3.5 mph 95 % 0.00 in
04:11 72.1 °F 70.6 °F 29.86 in SSW 0.4 mph 3.5 mph 95 % 0.00 in
04:16 72.1 °F 70.6 °F 29.84 in SSE 0.3 mph 2.3 mph 95 % 0.00 in
04:21 72.1 °F 70.6 °F 29.85 in SSW 1.4 mph 3.5 mph 95 % 0.00 in
04:22 72.1 °F 70.6 °F 29.85 in SSW 1.5 mph 3.5 mph 95 % 0.00 in
04:27 72.1 °F 70.6 °F 29.86 in SSW 0.6 mph 2.3 mph 95 % 0.00 in
04:32 72.1 °F 70.6 °F 29.81 in SE 0.1 mph 2.3 mph 95 % 0.00 in
04:37 72.1 °F 70.6 °F 29.86 in South 0.2 mph 3.5 mph 95 % 0.00 in
04:42 72.1 °F 70.6 °F 29.81 in SE 0.6 mph 3.5 mph 95 % 0.00 in
04:47 72.1 °F 70.6 °F 29.81 in SE 0.1 mph 3.5 mph 95 % 0.00 in
04:52 72.1 °F 70.6 °F 29.75 in South 0.9 mph 3.5 mph 95 % 0.00 in
04:57 72.2 °F 70.7 °F 29.73 in South 1.3 mph 3.5 mph 95 % 0.00 in
05:02 72.2 °F 70.7 °F 29.77 in South 1.7 mph 4.6 mph 95 % 0.01 in
05:07 72.2 °F 71.0 °F 29.77 in SE 0.4 mph 3.5 mph 96 % 0.01 in
05:12 72.2 °F 71.0 °F 29.72 in SW 0.3 mph 2.3 mph 96 % 0.01 in
05:17 72.2 °F 71.0 °F 29.69 in SSE 1.4 mph 4.6 mph 96 % 0.01 in
05:22 72.2 °F 71.0 °F 29.72 in SSW 1.0 mph 4.0 mph 96 % 0.01 in
05:27 72.2 °F 71.0 °F 29.77 in SSW 0.9 mph 3.5 mph 96 % 0.01 in
05:32 72.2 °F 71.0 °F 29.83 in SSW 1.3 mph 3.5 mph 96 % 0.01 in
05:37 72.1 °F 70.9 °F 29.76 in South 2.7 mph 3.5 mph 96 % 0.01 in
05:42 72.1 °F 70.9 °F 29.83 in SSW 0.5 mph 1.2 mph 96 % 0.01 in
05:47 72.1 °F 70.9 °F 29.80 in SSE 0.4 mph 2.3 mph 96 % 0.01 in
05:52 72.1 °F 70.9 °F 29.81 in SSE 0.5 mph 5.8 mph 96 % 0.01 in
05:57 72.1 °F 70.9 °F 29.75 in SSE 1.6 mph 3.5 mph 96 % 0.01 in
06:02 72.1 °F 70.9 °F 29.69 in South 1.3 mph 1.3 mph 96 % 0.00 in
06:03 72.1 °F 70.9 °F 29.68 in South 2.2 mph 3.5 mph 96 % 0.00 in
06:08 72.1 °F 70.9 °F 29.71 in South 0.2 mph 1.0 mph 96 % 0.00 in
06:13 72.1 °F 70.9 °F 29.79 in SE 1.9 mph 4.0 mph 96 % 0.00 in
06:18 72.1 °F 70.9 °F 29.81 in SSE 1.2 mph 3.0 mph 96 % 0.00 in
06:23 72.1 °F 70.9 °F 29.83 in SSW 1.8 mph 4.6 mph 96 % 0.00 in
06:29 72.1 °F 70.9 °F 29.82 in SSW 1.4 mph 4.6 mph 96 % 0.00 in
06:34 72.1 °F 70.9 °F 29.83 in SE 1.2 mph 4.6 mph 96 % 0.00 in
06:39 72.1 °F 70.9 °F 29.85 in South 0.2 mph 5.8 mph 96 % 0.00 in
06:44 72.1 °F 70.9 °F 29.82 in SSW 0.7 mph 3.5 mph 96 % 0.00 in
06:49 72.1 °F 70.9 °F 29.82 in SW 2.5 mph 4.6 mph 96 % 0.00 in
06:54 72.1 °F 70.9 °F 29.84 in SSW 0.2 mph 2.3 mph 96 % 0.00 in
06:59 72.1 °F 70.9 °F 29.83 in SSW 2.2 mph 3.5 mph 96 % 0.00 in
07:04 72.1 °F 70.9 °F 29.84 in SE 0.7 mph 2.3 mph 96 % 0.00 in
07:09 72.1 °F 70.9 °F 29.80 in WSW 2.0 mph 3.5 mph 96 % 0.00 in
07:14 72.1 °F 70.9 °F 29.82 in SSE 0.3 mph 2.3 mph 96 % 0.00 in
07:19 72.2 °F 71.0 °F 29.82 in SSE 4.2 mph 7.0 mph 96 % 0.00 in
07:24 72.2 °F 71.0 °F 29.84 in SSW 6.1 mph 6.1 mph 96 % 0.00 in
07:30 72.2 °F 71.0 °F 29.87 in SSW 1.8 mph 3.5 mph 96 % 0.00 in
07:35 72.3 °F 71.1 °F 29.80 in SSE 1.0 mph 3.5 mph 96 % 0.00 in
07:39 72.4 °F 71.2 °F 29.76 in SSE 0.2 mph 3.5 mph 96 % 0.00 in
07:45 72.4 °F 71.2 °F 29.77 in South 0.6 mph 1.2 mph 96 % 0.00 in
07:50 72.5 °F 71.3 °F 29.83 in SSW 1.3 mph 5.8 mph 96 % 0.00 in
07:55 72.5 °F 71.3 °F 29.82 in South 2.0 mph 4.6 mph 96 % 0.00 in
08:00 72.6 °F 71.4 °F 29.62 in SSW 2.2 mph 5.8 mph 96 % 0.00 in
08:05 72.6 °F 71.4 °F 29.84 in SW 1.5 mph 3.5 mph 96 % 0.00 in
08:10 72.7 °F 71.5 °F 29.77 in WSW 0.2 mph 2.3 mph 96 % 0.00 in
08:15 72.7 °F 71.5 °F 29.81 in SSW 2.8 mph 6.9 mph 96 % 0.00 in
08:20 72.8 °F 71.6 °F 29.68 in SW 2.0 mph 3.5 mph 96 % 0.00 in
08:25 72.9 °F 71.7 °F 29.83 in SSE 3.1 mph 6.0 mph 96 % 0.00 in
08:30 73.0 °F 71.8 °F 29.84 in SSW 2.1 mph 10.4 mph 96 % 0.00 in
08:35 73.1 °F 71.9 °F 29.72 in SE 0.3 mph 2.3 mph 96 % 0.00 in
08:40 73.1 °F 71.9 °F 29.76 in WSW 0.3 mph 1.2 mph 96 % 0.00 in
08:45 73.2 °F 72.0 °F 29.87 in SSW 1.0 mph 5.0 mph 96 % 0.00 in
08:50 73.3 °F 72.1 °F 29.71 in SSW 1.9 mph 4.6 mph 96 % 0.00 in
08:55 73.4 °F 72.2 °F 29.77 in SE 4.0 mph 9.0 mph 96 % 0.00 in
09:00 73.4 °F 72.2 °F 29.83 in SW 2.8 mph 6.9 mph 96 % 0.00 in
09:05 73.5 °F 72.3 °F 29.75 in SW 5.1 mph 8.1 mph 96 % 0.00 in
09:10 73.5 °F 72.3 °F 29.89 in SSW 2.0 mph 5.8 mph 96 % 0.00 in
09:15 73.5 °F 72.3 °F 29.87 in SW 1.4 mph 4.6 mph 96 % 0.00 in
09:20 73.6 °F 72.4 °F 29.83 in SSE 0.7 mph 3.5 mph 96 % 0.00 in
09:25 73.7 °F 72.5 °F 29.75 in WSW 1.3 mph 3.5 mph 96 % 0.00 in
09:30 73.8 °F 72.6 °F 29.73 in SSW 2.4 mph 6.9 mph 96 % 0.00 in
09:35 73.8 °F 72.6 °F 29.63 in South 0.8 mph 1.2 mph 96 % 0.00 in
09:40 73.9 °F 72.7 °F 29.62 in SSW 3.3 mph 4.0 mph 96 % 0.00 in
09:46 73.9 °F 72.4 °F 29.73 in South 2.0 mph 13.0 mph 95 % 0.00 in
09:51 74.0 °F 72.5 °F 29.59 in South 3.0 mph 9.0 mph 95 % 0.00 in
09:56 74.1 °F 72.6 °F 29.75 in South 1.0 mph 12.0 mph 95 % 0.00 in
10:01 74.1 °F 72.6 °F 29.67 in SSW 0.4 mph 3.5 mph 95 % 0.00 in
10:06 74.2 °F 72.4 °F 29.73 in South 0.5 mph 3.5 mph 94 % 0.00 in
10:11 74.2 °F 72.4 °F 29.67 in SSW 1.2 mph 5.8 mph 94 % 0.00 in
10:16 74.3 °F 72.5 °F 29.68 in South 1.0 mph 5.0 mph 94 % 0.00 in
10:21 74.3 °F 72.5 °F 29.68 in South 2.0 mph 9.0 mph 94 % 0.00 in
10:26 74.3 °F 72.5 °F 29.63 in SSE 1.0 mph 8.0 mph 94 % 0.00 in
10:31 74.3 °F 72.5 °F 29.68 in South 5.0 mph 12.0 mph 94 % 0.00 in
10:36 74.4 °F 72.2 °F 29.73 in South 7.0 mph 14.0 mph 93 % 0.00 in
10:41 74.4 °F 72.6 °F 29.91 in South 2.0 mph 8.0 mph 94 % 0.00 in
10:46 74.5 °F 72.3 °F 29.88 in South 1.0 mph 5.0 mph 93 % 0.00 in
10:51 74.5 °F 72.3 °F 29.86 in South 1.0 mph 5.0 mph 93 % 0.00 in
10:56 74.6 °F 72.4 °F 29.90 in South 3.0 mph 20.0 mph 93 % 0.00 in
11:01 74.6 °F 72.4 °F 29.85 in South 3.1 mph 5.8 mph 93 % 0.00 in
11:06 74.7 °F 72.5 °F 29.89 in South 3.1 mph 10.4 mph 93 % 0.00 in
11:11 74.7 °F 72.5 °F 29.89 in SE 2.0 mph 9.2 mph 93 % 0.00 in
11:16 74.6 °F 72.4 °F 29.90 in SSW 2.3 mph 6.9 mph 93 % 0.00 in
11:21 74.6 °F 72.8 °F 29.88 in SE 1.2 mph 9.0 mph 94 % 0.01 in
11:26 74.5 °F 72.7 °F 29.86 in SSE 7.9 mph 11.5 mph 94 % 0.01 in
11:31 74.4 °F 72.6 °F 29.88 in SSE 2.2 mph 8.1 mph 94 % 0.01 in
11:36 74.4 °F 72.6 °F 29.86 in South 0.4 mph 3.5 mph 94 % 0.01 in
11:41 74.2 °F 72.7 °F 29.87 in SSE 3.8 mph 9.2 mph 95 % 0.01 in
11:46 74.2 °F 72.7 °F 29.87 in SSE 2.4 mph 6.9 mph 95 % 0.01 in
11:51 74.2 °F 72.7 °F 29.74 in SSW 0.9 mph 3.5 mph 95 % 0.02 in
11:56 74.2 °F 72.7 °F 29.87 in South 1.3 mph 3.5 mph 95 % 0.02 in
12:01 74.2 °F 72.7 °F 29.88 in SSW 0.9 mph 3.5 mph 95 % 0.02 in
12:06 74.2 °F 72.7 °F 29.86 in SSE 2.9 mph 12.7 mph 95 % 0.02 in
12:11 74.2 °F 72.7 °F 29.87 in South 2.9 mph 6.9 mph 95 % 0.02 in
12:16 74.3 °F 73.1 °F 29.85 in SSE 4.5 mph 7.0 mph 96 % 0.02 in
12:21 74.3 °F 73.1 °F 29.85 in SSW 2.4 mph 6.9 mph 96 % 0.01 in
12:26 74.4 °F 73.2 °F 29.84 in SSW 4.6 mph 9.2 mph 96 % 0.01 in
12:31 74.5 °F 73.3 °F 29.84 in SW 4.0 mph 8.1 mph 96 % 0.01 in
12:36 74.5 °F 73.3 °F 29.85 in SSW 2.2 mph 6.9 mph 96 % 0.01 in
12:41 74.5 °F 73.0 °F 29.83 in South 2.6 mph 9.2 mph 95 % 0.01 in
12:46 74.5 °F 73.0 °F 29.80 in South 2.0 mph 9.2 mph 95 % 0.01 in
12:51 74.5 °F 73.0 °F 29.74 in SSW 2.7 mph 8.1 mph 95 % 0.00 in
12:56 74.5 °F 73.0 °F 29.67 in South 4.8 mph 6.9 mph 95 % 0.01 in
13:01 74.5 °F 73.0 °F 29.68 in South 2.4 mph 5.8 mph 95 % 0.01 in
13:06 74.4 °F 72.9 °F 29.68 in SE 1.2 mph 4.0 mph 95 % 0.01 in
13:11 74.4 °F 72.9 °F 29.72 in SSW 3.0 mph 4.6 mph 95 % 0.01 in
13:16 74.3 °F 72.8 °F 29.63 in South 3.3 mph 9.2 mph 95 % 0.01 in
13:21 74.2 °F 72.7 °F 29.66 in SW 4.5 mph 8.0 mph 95 % 0.02 in
13:26 74.2 °F 72.7 °F 29.52 in SW 1.4 mph 3.5 mph 95 % 0.02 in
13:31 74.2 °F 72.7 °F 29.61 in South 4.1 mph 5.8 mph 95 % 0.02 in
13:36 74.1 °F 72.6 °F 29.57 in South 2.3 mph 6.9 mph 95 % 0.02 in
13:41 74.1 °F 72.6 °F 29.68 in South 3.7 mph 6.9 mph 95 % 0.02 in
13:46 74.0 °F 72.5 °F 29.69 in South 6.9 mph 11.0 mph 95 % 0.03 in
13:49 74.0 °F 72.5 °F 29.64 in South 3.9 mph 6.9 mph 95 % 0.03 in
13:54 73.9 °F 72.4 °F 29.73 in SSW 1.7 mph 5.8 mph 95 % 0.03 in
13:59 73.9 °F 72.7 °F 29.73 in South 4.1 mph 16.1 mph 96 % 0.02 in
14:04 73.9 °F 72.7 °F 29.74 in South 4.3 mph 5.8 mph 96 % 0.03 in
14:09 73.8 °F 72.6 °F 29.72 in SSW 3.4 mph 8.1 mph 96 % 0.04 in
14:14 73.7 °F 72.5 °F 29.64 in SSW 3.5 mph 8.1 mph 96 % 0.05 in
14:19 73.6 °F 72.4 °F 29.68 in SE 5.1 mph 9.2 mph 96 % 0.07 in
14:24 73.4 °F 72.2 °F 29.72 in South 5.1 mph 12.0 mph 96 % 0.07 in
14:29 73.1 °F 71.6 °F 29.73 in SW 5.1 mph 10.4 mph 95 % 0.09 in
14:35 73.0 °F 71.5 °F 29.68 in South 4.9 mph 13.0 mph 95 % 0.10 in
14:40 72.8 °F 71.3 °F 29.68 in SSW 5.3 mph 11.5 mph 95 % 0.11 in
14:45 72.7 °F 71.2 °F 29.71 in South 3.1 mph 9.2 mph 95 % 0.12 in
14:50 72.6 °F 71.4 °F 29.54 in SW 3.5 mph 10.4 mph 96 % 0.13 in
14:51 72.6 °F 71.4 °F 29.61 in SSW 4.6 mph 11.5 mph 96 % 0.13 in
14:56 72.6 °F 71.4 °F 29.70 in South 6.2 mph 11.5 mph 96 % 0.14 in
15:01 72.5 °F 71.3 °F 29.69 in South 5.9 mph 16.1 mph 96 % 0.15 in
15:06 72.4 °F 71.2 °F 29.55 in SW 5.3 mph 12.7 mph 96 % 0.15 in
15:11 72.3 °F 71.1 °F 29.68 in SSE 3.6 mph 6.9 mph 96 % 0.15 in
15:16 72.2 °F 71.0 °F 29.70 in SW 3.0 mph 8.1 mph 96 % 0.13 in
15:21 72.2 °F 71.0 °F 29.62 in SSW 3.7 mph 5.0 mph 96 % 0.13 in
15:26 72.2 °F 71.0 °F 29.67 in WSW 2.0 mph 8.0 mph 96 % 0.11 in
15:31 72.2 °F 71.0 °F 29.62 in SSW 5.3 mph 11.5 mph 96 % 0.10 in
15:36 72.3 °F 71.1 °F 29.69 in SSE 4.7 mph 11.5 mph 96 % 0.09 in
15:41 72.4 °F 71.5 °F 29.56 in SW 4.4 mph 6.9 mph 97 % 0.07 in
15:46 72.5 °F 71.6 °F 29.65 in SSW 5.8 mph 11.5 mph 97 % 0.06 in
15:51 72.5 °F 71.6 °F 29.56 in SSW 6.1 mph 9.2 mph 97 % 0.05 in
16:01 72.6 °F 71.7 °F 29.70 in SE 4.8 mph 11.5 mph 97 % 0.03 in
16:06 72.6 °F 71.7 °F 29.68 in SSW 5.7 mph 11.5 mph 97 % 0.02 in
16:11 72.6 °F 71.7 °F 29.67 in SSW 5.2 mph 8.1 mph 97 % 0.01 in
16:16 72.6 °F 71.7 °F 29.71 in SSE 5.3 mph 11.5 mph 97 % 0.02 in
16:21 72.5 °F 71.6 °F 29.71 in South 3.8 mph 10.0 mph 97 % 0.01 in
16:26 72.5 °F 71.6 °F 29.72 in South 4.5 mph 9.2 mph 97 % 0.01 in
16:31 72.5 °F 71.6 °F 29.69 in SSW 2.7 mph 5.0 mph 97 % 0.01 in
16:36 72.5 °F 71.6 °F 29.63 in SSW 2.5 mph 7.0 mph 97 % 0.01 in
16:41 72.5 °F 71.6 °F 29.68 in South 1.6 mph 3.5 mph 97 % 0.01 in
16:46 72.5 °F 71.6 °F 29.75 in SSW 3.6 mph 11.5 mph 97 % 0.01 in
16:51 72.5 °F 71.6 °F 29.74 in South 3.0 mph 6.9 mph 97 % 0.01 in
16:56 72.5 °F 71.6 °F 29.75 in SSW 4.4 mph 6.9 mph 97 % 0.01 in
17:01 72.5 °F 71.6 °F 29.74 in SSW 1.1 mph 6.9 mph 97 % 0.01 in
17:06 72.5 °F 71.6 °F 29.73 in SSW 4.5 mph 17.3 mph 97 % 0.01 in
17:11 72.5 °F 71.6 °F 29.67 in SSW 1.2 mph 6.9 mph 97 % 0.01 in
17:17 72.6 °F 71.7 °F 29.75 in SSW 4.9 mph 11.5 mph 97 % 0.00 in
17:22 72.6 °F 71.7 °F 29.73 in South 2.2 mph 12.7 mph 97 % 0.00 in
17:27 72.6 °F 71.7 °F 29.72 in SSW 3.8 mph 6.9 mph 97 % 0.00 in
17:32 72.6 °F 71.7 °F 29.62 in SSW 4.8 mph 6.9 mph 97 % 0.00 in
17:37 72.6 °F 71.7 °F 29.66 in SSW 2.3 mph 8.1 mph 97 % 0.00 in
17:42 72.6 °F 71.7 °F 29.55 in SSE 1.9 mph 6.9 mph 97 % 0.00 in
17:47 72.6 °F 71.7 °F 29.63 in SSW 3.7 mph 5.0 mph 97 % 0.00 in
17:52 72.6 °F 71.7 °F 29.59 in SSE 2.5 mph 5.0 mph 97 % 0.00 in
17:57 72.6 °F 71.7 °F 29.60 in SSW 5.3 mph 8.1 mph 97 % 0.00 in
18:02 72.6 °F 71.7 °F 29.74 in SSW 5.4 mph 10.4 mph 97 % 0.00 in
18:07 72.6 °F 71.7 °F 29.69 in SSW 1.5 mph 4.0 mph 97 % 0.00 in
18:12 72.6 °F 71.7 °F 29.71 in SSW 2.6 mph 5.8 mph 97 % 0.00 in
18:17 72.7 °F 71.8 °F 29.65 in South 5.5 mph 8.0 mph 97 % 0.00 in
18:27 72.7 °F 71.8 °F 29.77 in South 1.1 mph 3.5 mph 97 % 0.00 in
18:32 72.7 °F 71.8 °F 29.65 in South 2.9 mph 8.1 mph 97 % 0.00 in
18:37 72.7 °F 71.8 °F 29.68 in South 3.3 mph 5.8 mph 97 % 0.00 in
18:42 72.7 °F 71.8 °F 29.69 in SSW 1.5 mph 2.3 mph 97 % 0.00 in
18:48 72.7 °F 71.8 °F 29.70 in SSW 0.7 mph 3.5 mph 97 % 0.00 in
18:53 72.7 °F 71.8 °F 29.73 in South 1.2 mph 5.8 mph 97 % 0.00 in
18:57 72.8 °F 71.9 °F 29.71 in SSE 1.1 mph 6.9 mph 97 % 0.00 in
19:03 72.8 °F 71.9 °F 29.72 in SSW 2.7 mph 5.0 mph 97 % 0.00 in
19:08 72.8 °F 71.9 °F 29.64 in SE 2.5 mph 4.6 mph 97 % 0.00 in
19:12 72.8 °F 71.9 °F 29.69 in South 2.6 mph 4.6 mph 97 % 0.00 in
19:18 72.8 °F 71.9 °F 29.70 in SSE 1.8 mph 3.5 mph 97 % 0.00 in
19:23 72.7 °F 71.8 °F 29.72 in SSW 2.1 mph 5.8 mph 97 % 0.00 in
19:28 72.7 °F 71.8 °F 29.64 in South 2.1 mph 5.8 mph 97 % 0.00 in
19:33 72.7 °F 71.8 °F 29.73 in SSW 2.8 mph 6.0 mph 97 % 0.00 in
19:38 72.7 °F 71.8 °F 29.68 in South 2.3 mph 6.9 mph 97 % 0.00 in
19:43 72.7 °F 71.8 °F 29.70 in South 1.9 mph 5.8 mph 97 % 0.00 in
19:48 72.8 °F 71.9 °F 29.75 in SSW 1.5 mph 4.6 mph 97 % 0.00 in
19:53 72.8 °F 71.9 °F 29.73 in WSW 2.7 mph 5.8 mph 97 % 0.00 in
19:58 72.8 °F 71.9 °F 29.70 in SSW 1.4 mph 6.9 mph 97 % 0.00 in
20:03 72.9 °F 72.0 °F 29.66 in South 3.4 mph 6.9 mph 97 % 0.00 in
20:13 72.9 °F 72.0 °F 29.63 in SW 1.1 mph 3.0 mph 97 % 0.00 in
20:18 72.9 °F 72.0 °F 29.69 in SW 2.2 mph 5.0 mph 97 % 0.00 in
20:23 73.0 °F 72.1 °F 29.56 in SSW 0.9 mph 3.5 mph 97 % 0.00 in
20:28 73.0 °F 72.1 °F 29.75 in SSE 1.0 mph 3.0 mph 97 % 0.00 in
20:33 73.1 °F 72.2 °F 29.77 in South 2.2 mph 4.6 mph 97 % 0.00 in
20:38 73.1 °F 72.2 °F 29.75 in SSW 1.8 mph 4.0 mph 97 % 0.00 in
20:43 73.2 °F 72.3 °F 29.78 in SSW 3.7 mph 6.9 mph 97 % 0.00 in
20:48 73.2 °F 72.3 °F 29.78 in SW 1.1 mph 4.0 mph 97 % 0.00 in
20:53 73.3 °F 72.4 °F 29.78 in South 3.3 mph 4.6 mph 97 % 0.00 in
20:58 73.3 °F 72.4 °F 29.79 in SSW 1.3 mph 3.5 mph 97 % 0.00 in
21:03 73.3 °F 72.4 °F 29.66 in SSW 2.4 mph 4.6 mph 97 % 0.00 in
21:08 73.3 °F 72.4 °F 29.68 in SSW 3.4 mph 5.8 mph 97 % 0.00 in
21:13 73.4 °F 72.5 °F 29.55 in West 1.6 mph 3.5 mph 97 % 0.00 in
21:18 73.4 °F 72.5 °F 29.64 in WSW 0.7 mph 3.5 mph 97 % 0.00 in
21:23 73.4 °F 72.5 °F 29.65 in SSW 1.2 mph 2.3 mph 97 % 0.00 in
21:28 73.5 °F 72.6 °F 29.74 in South 0.7 mph 2.3 mph 97 % 0.00 in
21:33 73.4 °F 72.5 °F 29.67 in SSW 3.2 mph 5.0 mph 97 % 0.00 in
21:38 73.5 °F 72.6 °F 29.68 in SSW 2.5 mph 2.5 mph 97 % 0.00 in
21:44 73.5 °F 72.6 °F 29.67 in SW 0.9 mph 4.6 mph 97 % 0.00 in
21:49 73.5 °F 72.6 °F 29.68 in SSW 1.3 mph 3.5 mph 97 % 0.00 in
21:54 73.5 °F 72.6 °F 29.74 in WSW 0.7 mph 2.3 mph 97 % 0.00 in
21:59 73.5 °F 72.6 °F 29.66 in South 1.3 mph 4.6 mph 97 % 0.00 in
22:11 73.5 °F 72.6 °F 29.75 in SSW 2.9 mph 4.0 mph 97 % 0.00 in
22:16 73.5 °F 72.6 °F 29.67 in SW 3.4 mph 4.6 mph 97 % 0.00 in
22:26 73.5 °F 72.6 °F 29.71 in South 1.4 mph 4.0 mph 97 % 0.00 in
22:31 73.5 °F 72.6 °F 29.72 in SSW 2.6 mph 4.6 mph 97 % 0.00 in
22:36 73.5 °F 72.6 °F 29.66 in SW 3.1 mph 8.1 mph 97 % 0.00 in
22:41 73.4 °F 72.5 °F 29.68 in SW 3.9 mph 5.8 mph 97 % 0.00 in
22:46 73.4 °F 72.5 °F 29.70 in SW 1.4 mph 6.0 mph 97 % 0.00 in
22:56 73.4 °F 72.5 °F 29.70 in SSW 1.6 mph 3.5 mph 97 % 0.00 in
23:01 73.3 °F 72.4 °F 29.61 in WSW 0.3 mph 1.2 mph 97 % 0.00 in
23:06 73.3 °F 72.4 °F 29.72 in SSW 0.3 mph 2.3 mph 97 % 0.00 in
23:07 73.3 °F 72.4 °F 29.57 in SSW 1.4 mph 5.0 mph 97 % 0.00 in
23:12 73.3 °F 72.4 °F 29.73 in SW 0.9 mph 2.3 mph 97 % 0.00 in
23:17 73.3 °F 72.4 °F 29.64 in SSW 1.5 mph 3.5 mph 97 % 0.00 in
23:19 73.3 °F 72.4 °F 29.60 in WSW 2.5 mph 5.8 mph 97 % 0.00 in
23:21 73.3 °F 72.4 °F 29.62 in WSW 1.8 mph 3.5 mph 97 % 0.00 in
23:31 73.3 °F 72.4 °F 29.69 in WSW 0.2 mph 2.3 mph 97 % 0.00 in
23:36 73.3 °F 72.4 °F 29.77 in SW 1.3 mph 2.3 mph 97 % 0.00 in
23:41 73.4 °F 72.5 °F 29.74 in SW 3.8 mph 8.1 mph 97 % 0.00 in
23:47 73.4 °F 72.5 °F 29.75 in SW 2.2 mph 6.9 mph 97 % 0.00 in
23:51 73.5 °F 72.6 °F 29.62 in SW 3.2 mph 4.6 mph 97 % 0.00 in
23:57 73.5 °F 72.6 °F 29.74 in SSW 2.7 mph 6.9 mph 97 % 0.00 in
Crab Meadow Weather
Compliments of Weather Underground - 3 mb

Script developed by  Jim McMurry - jmcmurry@mwt.net Adapted for the template by  Wim van der Kuil - Leuven-Template.eu

Astronomy: A year on Venus is 225 days.